Surrey Half Marathon
10 Mar 2019

     
Click your name for detailed results

Page 1 of 72 (3559 items)
PosBib NoNameGun TimeChip TimeCategoryCat PosGenderGen PosClubCompany nameAge GradePace
13464641Jonathan NEWELL1:51:11.81:48:23.8V5075Male112323 MILE CLUB 60.70 7.1 m/hr
292712Joseph GONZALEZ-ARMAS1:17:03.61:17:01.7V501Male2926.2 ROAD RUNNERS CLUB 84.55 10.2 m/hr
482728Steve NICHOLLS1:20:29.71:20:27.5V406Male4726.2 ROAD RUNNERS CLUB 76.93 9.8 m/hr
523200Tim BARTHOLOMEW1:20:47.21:20:44.3Sen37Male5026.2 ROAD RUNNERS CLUB 72.85 9.7 m/hr
542735Christopher HUTCHINSON1:20:56.11:20:52.3Sen39Male5226.2 ROAD RUNNERS CLUBACCENTURE 72.14 9.7 m/hr
996425Steven RAMEK1:23:57.31:23:54.6V502Male9426.2 ROAD RUNNERS CLUB 79.68 9.4 m/hr
1022724Paul DONOHOE1:24:08.91:24:05.5V4020Male9626.2 ROAD RUNNERS CLUB 72.99 9.3 m/hr
1412744Joseph CHANG1:25:54.81:25:50.8V4029Male13426.2 ROAD RUNNERS CLUB 69.88 9.1 m/hr
1622707Joseph BREWER1:26:39.31:26:32.5V4034Male15126.2 ROAD RUNNERS CLUB 69.28 9.1 m/hr
1982738Dmitry SELEMIR1:27:59.31:27:56.4V4045Male18426.2 ROAD RUNNERS CLUB 68.23 8.9 m/hr
2052704Victoria HASLAM1:28:11.11:28:03.8Sen12Female1626.2 ROAD RUNNERS CLUB 74.02 8.9 m/hr
2302717Max RILEY1:28:54.71:28:25.8Sen131Male21426.2 ROAD RUNNERS CLUB 65.66 8.8 m/hr
3935942Mark CANNINGS1:34:27.41:33:33.8V4543Male36326.2 ROAD RUNNERS CLUB 67.80 8.3 m/hr
5742721Paul KEDDIE1:38:13.01:37:17.6V5030Male51326.2 ROAD RUNNERS CLUB 68.11 8.0 m/hr
6505172Richard HOOK1:39:30.31:38:44.5V40117Male57926.2 ROAD RUNNERS CLUB 60.75 7.9 m/hr
6716372Brian MERRITT1:39:52.91:38:57.2V40120Male59826.2 ROAD RUNNERS CLUB 60.11 7.9 m/hr
7692747Robert PYKE1:41:49.21:40:07.5V4589Male68026.2 ROAD RUNNERS CLUB 61.83 7.7 m/hr
7843066Craig BOWDERY1:42:08.71:41:08.8Sen395Male69026.2 ROAD RUNNERS CLUB 57.31 7.7 m/hr
8352822Laura HOOKE1:43:07.81:42:33.5Sen75Female10126.2 ROAD RUNNERS CLUB 63.24 7.6 m/hr
9992760Harry KIM1:45:22.61:44:25.3V45115Male85626.2 ROAD RUNNERS CLUB 60.25 7.5 m/hr
10212723Martin BANKS1:45:45.81:43:49.4Sen497Male87726.2 ROAD RUNNERS CLUB 55.65 7.4 m/hr
10885711Edward ROWLAND1:46:58.81:44:56.6Sen521Male93026.2 ROAD RUNNERS CLUB 54.63 7.3 m/hr
12432745Jacqueline CHANG1:49:51.01:47:50.1V4026Female19526.2 ROAD RUNNERS CLUB 61.40 7.2 m/hr
12546740James MACKAY1:50:01.31:47:55.9V40214Male105326.2 ROAD RUNNERS CLUB 56.28 7.1 m/hr
12812710Vicki KIRK1:50:23.51:47:59.1Sen143Female20726.2 ROAD RUNNERS CLUB 59.65 7.1 m/hr
13826243James EATON1:51:34.11:49:09.2V45159Male114826.2 ROAD RUNNERS CLUB 56.91 7.0 m/hr
14212762Greg WHITEMAN1:51:52.51:50:00.2V5081Male117326.2 ROAD RUNNERS CLUB 58.24 7.0 m/hr
15772709Richard KIRK1:54:51.01:52:40.5Sen695Male127526.2 ROAD RUNNERS CLUB 51.09 6.8 m/hr
15785986Andrea BENNETT1:54:51.61:53:21.1V5016Female30326.2 ROAD RUNNERS CLUB 67.79 6.8 m/hr
16692719Viola NICASTRO1:56:18.81:53:54.4Sen215Female33126.2 ROAD RUNNERS CLUB 56.12 6.8 m/hr
17772730Graham PARTNER1:58:04.21:55:32.1V40279Male140726.2 ROAD RUNNERS CLUB 52.02 6.7 m/hr
17922708Cassandra BREWER1:58:20.81:56:00.1V4070Female37526.2 ROAD RUNNERS CLUB 57.00 6.6 m/hr
21362736Sara HUMPHREYS2:03:25.91:59:06.9Sen314Female51526.2 ROAD RUNNERS CLUB 54.32 6.4 m/hr
24146771Karh HUGHES2:08:35.02:04:11.2Sen926Male177226.2 ROAD RUNNERS CLUB 46.16 6.1 m/hr
24922732Alice PIKE2:10:17.52:04:18.7Sen427Female68126.2 ROAD RUNNERS CLUB 50.04 6.0 m/hr
25485894Jacqueline MCDERMID2:11:30.42:05:32.1V40128Female71126.2 ROAD RUNNERS CLUB 52.01 6.0 m/hr
25675841Laurie JOHNSTON2:11:48.32:05:49.8V6054Male184926.2 ROAD RUNNERS CLUB 57.99 6.0 m/hr
27652698Howell JONES2:15:58.42:09:59.4V40354Male194526.2 ROAD RUNNERS CLUB 45.54 5.8 m/hr
28505872Samantha ALLEN2:18:41.82:12:43.5Sen524Female86226.2 ROAD RUNNERS CLUB 48.09 5.7 m/hr
28792718Ellen LAMBRIX2:19:16.62:13:18.3Sen533Female87926.2 ROAD RUNNERS CLUB 47.02 5.6 m/hr
29432743Laura MCSHARRY2:20:45.82:14:47.1V5528Female91626.2 ROAD RUNNERS CLUB 56.02 5.6 m/hr
32762697Maria CENALMOR2:34:33.52:28:35.1V45142Female114126.2 ROAD RUNNERS CLUB 45.85 5.1 m/hr
34276109Nigel LEE2:46:50.92:38:56.8V6077Male218326.2 ROAD RUNNERS CLUB 42.76 4.7 m/hr
34992682Laura HOLFORD2:59:58.72:52:59.0V45165Female129626.2 ROAD RUNNERS CLUB 40.71 4.4 m/hr
35156120Beverly GOW3:06:28.72:58:35.5V5088Female131026.2 ROAD RUNNERS CLUB 39.76 4.2 m/hr
4062237Vanessa GILMARTIN1:34:43.11:34:31.0V404Female327OAKS TRI CLUB 72.78 8.3 m/hr
13852241Simon TRUETT1:51:37.61:50:35.1V40229Male11507OAKS TRI CLUB 55.47 7.0 m/hr
14962236Alex DAVISON1:53:04.91:50:22.1Sen661Male12177OAKS TRI CLUB 51.89 7.0 m/hr
11715700Paula MAGUIRE1:48:29.41:46:41.5Sen127Female181ABERGELE HARRIERS 61.80 7.2 m/hr
5075718Craig SULLIVAN1:36:48.91:35:28.4Sen264Male457AFD 60.30 8.1 m/hr
Page 1 of 72 (3559 items)
   

fb